Time;durP1;ratioP1;P1;durP2;ratioP2;P2;SDS_P1;SDS_P2;PMS_P1;PMS_P2;Temp;Humidity;BMP_temperature;BMP_pressure;BME280_temperature;BME280_humidity;BME280_pressure;Samples;Min_cycle;Max_cycle;Signal;HPM_P1;HPM_P2
2022/06/08 00:00:26;;;;;;;31.80;23.60;;;;;;;;;;4931455;29;20030;-65
2022/06/08 00:02:57;;;;;;;33.13;26.42;;;;;;;;;;4931947;28;20059;-65
2022/06/08 00:05:23;;;;;;;31.98;24.35;;;;;;;;;;4932502;28;20115;-65
2022/06/08 00:07:49;;;;;;;32.38;24.42;;;;;;;;;;4931571;29;20028;-65
2022/06/08 00:10:15;;;;;;;32.67;24.42;;;;;;;;;;4931734;28;20036;-65
2022/06/08 00:12:41;;;;;;;33.70;25.65;;;;;;;;;;4932019;28;20038;-65
2022/06/08 00:15:08;;;;;;;31.55;24.52;;;;;;;;;;4931853;28;20462;-65
2022/06/08 00:17:34;;;;;;;31.52;23.23;;;;;;;;;;4914363;28;20031;-65
2022/06/08 00:20:00;;;;;;;32.70;24.05;;;;;;;;;;4931564;29;20494;-65
2022/06/08 00:22:26;;;;;;;31.48;23.70;;;;;;;;;;4931891;29;20023;-65
2022/06/08 00:24:52;;;;;;;31.35;22.33;;;;;;;;;;4932229;28;20016;-65
2022/06/08 00:27:18;;;;;;;30.65;23.90;;;;;;;;;;4931750;29;20038;-65
2022/06/08 00:29:44;;;;;;;32.88;24.83;;;;;;;;;;4931822;29;20031;-65
2022/06/08 00:32:10;;;;;;;33.63;25.77;;;;;;;;;;4932283;28;20077;-65
2022/06/08 00:34:36;;;;;;;35.83;27.63;;;;;;;;;;4931986;28;20070;-65
2022/06/08 00:37:02;;;;;;;38.92;28.02;;;;;;;;;;4932243;28;20035;-65
2022/06/08 00:39:28;;;;;;;37.55;27.27;;;;;;;;;;4932178;28;20031;-66
2022/06/08 00:42:00;;;;;;;36.83;27.73;;;;;;;;;;4932454;28;20103;-66
2022/06/08 00:44:46;;;;;;;36.60;27.83;;;;;;;;;;4931846;29;20028;-66
2022/06/08 00:47:14;;;;;;;38.47;27.63;;;;;;;;;;4931173;29;20399;-65
2022/06/08 00:49:47;;;;;;;34.50;27.85;;;;;;;;;;4914368;28;20403;-65
2022/06/08 00:52:14;;;;;;;38.20;27.73;;;;;;;;;;4931483;28;20722;-65
2022/06/08 00:54:42;;;;;;;35.33;26.17;;;;;;;;;;4914499;28;20036;-66
2022/06/08 00:57:08;;;;;;;41.75;29.17;;;;;;;;;;4931267;29;20038;-64
2022/06/08 00:59:35;;;;;;;35.95;27.10;;;;;;;;;;4930985;29;20029;-66
2022/06/08 01:02:01;;;;;;;36.42;27.52;;;;;;;;;;4917070;28;20545;-66
2022/06/08 01:04:27;;;;;;;35.53;26.00;;;;;;;;;;4917632;28;20028;-66
2022/06/08 01:06:55;;;;;;;38.35;28.13;;;;;;;;;;4917757;28;20023;-65
2022/06/08 01:09:28;;;;;;;39.28;27.17;;;;;;;;;;4954558;23;20150;-60
2022/06/08 01:11:56;;;;;;;36.33;27.05;;;;;;;;;;4913780;29;20046;-61
2022/06/08 01:14:23;;;;;;;37.97;27.73;;;;;;;;;;4897177;29;20028;-60
2022/06/08 01:16:58;;;;;;;38.58;26.77;;;;;;;;;;4897384;29;20035;-60
2022/06/08 01:19:24;;;;;;;36.33;28.33;;;;;;;;;;4912573;29;20024;-60
2022/06/08 01:21:55;;;;;;;35.83;27.85;;;;;;;;;;4895288;29;20392;-60
2022/06/08 01:24:21;;;;;;;38.08;28.90;;;;;;;;;;4878692;29;20039;-61
2022/06/08 01:27:06;;;;;;;37.92;28.65;;;;;;;;;;4895857;29;20100;-60
2022/06/08 01:29:36;;;;;;;39.40;29.20;;;;;;;;;;4895430;29;20083;-61
2022/06/08 01:32:04;;;;;;;39.85;29.08;;;;;;;;;;4879019;29;20445;-61
2022/06/08 01:34:48;;;;;;;39.00;29.88;;;;;;;;;;4895966;29;20036;-61
2022/06/08 01:37:20;;;;;;;39.58;28.00;;;;;;;;;;4895737;29;20108;-61
2022/06/08 01:39:58;;;;;;;44.10;30.75;;;;;;;;;;4879117;29;20444;-61
2022/06/08 01:42:33;;;;;;;37.83;28.27;;;;;;;;;;4879217;29;20067;-60
2022/06/08 01:48:07;;;;;;;38.85;30.00;;;;;;;;;;4894808;29;20039;-60
2022/06/08 01:50:33;;;;;;;41.42;30.98;;;;;;;;;;4894922;29;20037;-59
2022/06/08 01:53:02;;;;;;;38.72;29.73;;;;;;;;;;4895074;29;20033;-60
2022/06/08 01:55:49;;;;;;;39.60;29.85;;;;;;;;;;4877866;29;20032;-61
2022/06/08 01:58:20;;;;;;;40.67;30.88;;;;;;;;;;4894682;29;20318;-60
2022/06/08 02:00:49;;;;;;;42.97;30.63;;;;;;;;;;4894726;29;20473;-60
2022/06/08 02:03:24;;;;;;;43.83;32.15;;;;;;;;;;4894567;29;20075;-61
2022/06/08 02:06:06;;;;;;;43.17;31.15;;;;;;;;;;4894688;29;20481;-61
2022/06/08 02:08:48;;;;;;;43.95;31.60;;;;;;;;;;4877558;29;20025;-61
2022/06/08 02:11:24;;;;;;;43.72;31.65;;;;;;;;;;4894424;29;20116;-61
2022/06/08 02:13:53;;;;;;;44.10;30.65;;;;;;;;;;4876906;29;20025;-61
2022/06/08 02:16:30;;;;;;;47.30;33.83;;;;;;;;;;4894282;29;20033;-60
2022/06/08 02:19:02;;;;;;;46.45;34.15;;;;;;;;;;4894191;29;20032;-60
2022/06/08 02:21:31;;;;;;;45.55;32.58;;;;;;;;;;4894283;29;20099;-60
2022/06/08 02:24:02;;;;;;;44.08;32.10;;;;;;;;;;4894184;29;20068;-60
2022/06/08 02:26:30;;;;;;;45.85;31.45;;;;;;;;;;4894267;29;20370;-60
2022/06/08 02:28:59;;;;;;;45.00;32.55;;;;;;;;;;4893832;29;20448;-61
2022/06/08 02:31:29;;;;;;;47.33;31.15;;;;;;;;;;4894112;29;20067;-61
2022/06/08 02:34:29;;;;;;;49.00;34.55;;;;;;;;;;4894266;29;20036;-61
2022/06/08 02:37:28;;;;;;;54.63;36.72;;;;;;;;;;4877143;29;20040;-60
2022/06/08 02:39:56;;;;;;;50.97;34.70;;;;;;;;;;4872580;29;20115;-60
2022/06/08 02:42:25;;;;;;;51.20;33.95;;;;;;;;;;4877347;29;20067;-60
2022/06/08 02:44:53;;;;;;;54.30;36.50;;;;;;;;;;4894003;29;20056;-60
2022/06/08 02:47:29;;;;;;;57.35;36.15;;;;;;;;;;4893703;29;20111;-60
2022/06/08 02:49:55;;;;;;;55.33;37.05;;;;;;;;;;4894019;29;20063;-58
2022/06/08 02:52:24;;;;;;;54.92;36.25;;;;;;;;;;4877051;29;20458;-60
2022/06/08 02:54:50;;;;;;;61.45;39.70;;;;;;;;;;4893771;29;20032;-60
2022/06/08 02:57:31;;;;;;;57.88;37.92;;;;;;;;;;4876692;29;20038;-60
2022/06/08 03:00:06;;;;;;;66.80;42.90;;;;;;;;;;4893645;29;20079;-59
2022/06/08 03:02:35;;;;;;;59.15;40.10;;;;;;;;;;4893889;29;20056;-60
2022/06/08 03:05:14;;;;;;;67.10;39.13;;;;;;;;;;4893813;29;20031;-60
2022/06/08 03:07:45;;;;;;;62.75;41.25;;;;;;;;;;4876737;29;20375;-60
2022/06/08 03:10:13;;;;;;;64.70;43.17;;;;;;;;;;4876839;29;20044;-60
2022/06/08 03:12:41;;;;;;;68.78;42.63;;;;;;;;;;4893658;29;20036;-60
2022/06/08 03:15:08;;;;;;;69.03;42.25;;;;;;;;;;4893689;29;20028;-60
2022/06/08 03:17:35;;;;;;;73.03;43.95;;;;;;;;;;4893568;29;20116;-60
2022/06/08 03:20:03;;;;;;;72.35;43.35;;;;;;;;;;4877035;29;20108;-60
2022/06/08 03:22:28;;;;;;;73.47;43.72;;;;;;;;;;4876909;29;20024;-60
2022/06/08 03:24:55;;;;;;;72.28;45.28;;;;;;;;;;4893676;29;20025;-60
2022/06/08 03:27:21;;;;;;;66.93;44.00;;;;;;;;;;4876827;29;20095;-60
2022/06/08 03:29:47;;;;;;;69.25;45.20;;;;;;;;;;4893565;29;20025;-60
2022/06/08 03:32:13;;;;;;;74.80;46.95;;;;;;;;;;4876334;29;20400;-60
2022/06/08 03:34:40;;;;;;;75.18;46.83;;;;;;;;;;4893294;29;20029;-60
2022/06/08 03:37:06;;;;;;;79.00;45.95;;;;;;;;;;4893116;29;20077;-60
2022/06/08 03:39:32;;;;;;;79.47;48.90;;;;;;;;;;4893506;29;20083;-60
2022/06/08 03:41:59;;;;;;;72.32;43.70;;;;;;;;;;4893135;29;20068;-59
2022/06/08 03:44:25;;;;;;;72.30;44.55;;;;;;;;;;4893013;29;20406;-59
2022/06/08 03:46:53;;;;;;;72.13;44.38;;;;;;;;;;4892984;29;20035;-60
2022/06/08 03:49:20;;;;;;;71.43;45.17;;;;;;;;;;4892796;29;20426;-63
2022/06/08 03:51:46;;;;;;;71.22;46.42;;;;;;;;;;4876435;29;20472;-61
2022/06/08 03:54:17;;;;;;;71.15;44.65;;;;;;;;;;4892991;29;20032;-60
2022/06/08 03:56:45;;;;;;;72.47;44.97;;;;;;;;;;4875937;29;20032;-60
2022/06/08 03:59:11;;;;;;;70.22;44.88;;;;;;;;;;4875870;29;20025;-60
2022/06/08 04:01:38;;;;;;;66.70;43.40;;;;;;;;;;4893009;29;20498;-60
2022/06/08 04:04:05;;;;;;;72.88;45.33;;;;;;;;;;4893079;29;20025;-60
2022/06/08 04:06:31;;;;;;;67.82;43.40;;;;;;;;;;4892936;29;20500;-58
2022/06/08 04:08:57;;;;;;;71.50;46.03;;;;;;;;;;4892753;29;20036;-59
2022/06/08 04:11:23;;;;;;;63.90;42.85;;;;;;;;;;4892700;29;20092;-60
2022/06/08 04:13:49;;;;;;;64.35;42.63;;;;;;;;;;4892860;29;20031;-60
2022/06/08 04:16:19;;;;;;;63.17;42.30;;;;;;;;;;4892787;29;20164;-60
2022/06/08 04:18:45;;;;;;;66.72;42.20;;;;;;;;;;4892683;29;20028;-60
2022/06/08 04:21:13;;;;;;;64.53;43.58;;;;;;;;;;4892680;29;20035;-60
2022/06/08 04:23:40;;;;;;;61.50;41.08;;;;;;;;;;4892903;29;20028;-60
2022/06/08 04:26:07;;;;;;;55.03;39.00;;;;;;;;;;4892765;29;20033;-60
2022/06/08 04:28:33;;;;;;;59.20;40.55;;;;;;;;;;4892547;29;20028;-60
2022/06/08 04:30:59;;;;;;;55.22;38.53;;;;;;;;;;4875796;29;20115;-60
2022/06/08 04:33:25;;;;;;;56.03;39.78;;;;;;;;;;4892649;29;20131;-60
2022/06/08 04:35:51;;;;;;;54.70;40.38;;;;;;;;;;4893744;29;20035;-60
2022/06/08 04:38:17;;;;;;;52.03;37.45;;;;;;;;;;4895676;29;20075;-60
2022/06/08 04:40:43;;;;;;;53.10;37.45;;;;;;;;;;4895832;29;20043;-59
2022/06/08 04:43:09;;;;;;;46.75;34.92;;;;;;;;;;4895794;29;20438;-62
2022/06/08 04:45:36;;;;;;;51.55;35.47;;;;;;;;;;4895743;29;20032;-59
2022/06/08 04:48:03;;;;;;;48.60;35.53;;;;;;;;;;4895387;29;20029;-60
2022/06/08 04:50:29;;;;;;;50.75;34.72;;;;;;;;;;4878796;29;20393;-57
2022/06/08 04:52:55;;;;;;;51.50;36.28;;;;;;;;;;4895490;29;20028;-60
2022/06/08 04:55:22;;;;;;;46.08;34.78;;;;;;;;;;4879046;29;20037;-59
2022/06/08 04:57:48;;;;;;;45.35;31.35;;;;;;;;;;4895291;29;20021;-60
2022/06/08 05:00:17;;;;;;;47.42;36.05;;;;;;;;;;4878938;29;20483;-60
2022/06/08 05:02:44;;;;;;;;;;;;;;;;;;4895964;29;20031;-61
2022/06/08 05:05:11;;;;;;;43.58;31.83;;;;;;;;;;4895741;29;20331;-61
2022/06/08 05:07:37;;;;;;;44.70;31.73;;;;;;;;;;4895180;29;20039;-61
2022/06/08 05:10:04;;;;;;;51.35;32.28;;;;;;;;;;4877778;29;20041;-63
2022/06/08 05:12:30;;;;;;;40.83;29.98;;;;;;;;;;4894838;29;20024;-60
2022/06/08 05:14:56;;;;;;;39.28;29.08;;;;;;;;;;4895323;29;20043;-61
2022/06/08 05:17:22;;;;;;;38.30;29.55;;;;;;;;;;4877894;29;20115;-61
2022/06/08 05:19:48;;;;;;;40.08;29.35;;;;;;;;;;4894968;29;20117;-61
2022/06/08 05:22:14;;;;;;;38.88;29.48;;;;;;;;;;4895366;29;20021;-60
2022/06/08 05:24:40;;;;;;;37.75;27.30;;;;;;;;;;4878427;29;20154;-60
2022/06/08 05:27:06;;;;;;;37.05;27.30;;;;;;;;;;4894884;29;20036;-58
2022/06/08 05:29:32;;;;;;;37.97;27.63;;;;;;;;;;4895117;29;20025;-58
2022/06/08 05:31:58;;;;;;;35.42;26.45;;;;;;;;;;4894955;29;20047;-60
2022/06/08 05:34:24;;;;;;;36.58;28.33;;;;;;;;;;4895330;29;20024;-60
2022/06/08 05:36:50;;;;;;;40.25;28.15;;;;;;;;;;4895243;29;20025;-60
2022/06/08 05:39:16;;;;;;;34.38;25.88;;;;;;;;;;4894787;29;20039;-60
2022/06/08 05:41:42;;;;;;;33.83;25.08;;;;;;;;;;4894917;29;20025;-59
2022/06/08 05:44:08;;;;;;;34.88;24.85;;;;;;;;;;4894976;29;20044;-61
2022/06/08 05:46:34;;;;;;;35.08;25.20;;;;;;;;;;4877322;29;20033;-61
2022/06/08 05:49:00;;;;;;;32.03;22.60;;;;;;;;;;4894056;29;20029;-61
2022/06/08 05:51:27;;;;;;;29.92;23.05;;;;;;;;;;4894816;29;20112;-61
2022/06/08 05:53:53;;;;;;;29.77;23.08;;;;;;;;;;4894374;29;20031;-61
2022/06/08 05:56:18;;;;;;;31.30;21.55;;;;;;;;;;4894789;29;20032;-61
2022/06/08 05:58:44;;;;;;;29.45;21.48;;;;;;;;;;4894339;29;20279;-61
2022/06/08 06:01:10;;;;;;;27.77;19.73;;;;;;;;;;4894405;29;20036;-61
2022/06/08 06:03:36;;;;;;;31.10;22.08;;;;;;;;;;4894796;29;20441;-61
2022/06/08 06:06:02;;;;;;;26.20;19.20;;;;;;;;;;4877803;29;20056;-60
2022/06/08 06:08:28;;;;;;;27.05;19.30;;;;;;;;;;4894458;29;20021;-60
2022/06/08 06:10:54;;;;;;;28.48;19.88;;;;;;;;;;4893952;29;20036;-61
2022/06/08 06:13:20;;;;;;;28.30;19.25;;;;;;;;;;4894902;29;20059;-61
2022/06/08 06:15:47;;;;;;;27.50;19.95;;;;;;;;;;4877613;29;20053;-61
2022/06/08 06:18:13;;;;;;;28.48;21.55;;;;;;;;;;4894826;29;20028;-61
2022/06/08 06:20:40;;;;;;;28.50;19.23;;;;;;;;;;4894543;29;20098;-61
2022/06/08 06:23:06;;;;;;;26.67;18.08;;;;;;;;;;4877956;29;20416;-60
2022/06/08 06:25:32;;;;;;;26.20;18.40;;;;;;;;;;4894750;29;20449;-61
2022/06/08 06:27:58;;;;;;;26.45;18.05;;;;;;;;;;4877977;29;20083;-60
2022/06/08 06:30:24;;;;;;;24.70;16.30;;;;;;;;;;4877530;29;20472;-60
2022/06/08 06:32:50;;;;;;;26.42;16.83;;;;;;;;;;4878003;29;20040;-61
2022/06/08 06:35:19;;;;;;;24.25;15.63;;;;;;;;;;4894835;29;20104;-60
2022/06/08 06:37:45;;;;;;;26.30;15.45;;;;;;;;;;4894036;29;20487;-62
2022/06/08 06:40:11;;;;;;;22.58;15.60;;;;;;;;;;4877453;29;20556;-61
2022/06/08 06:42:37;;;;;;;23.08;15.18;;;;;;;;;;4893827;29;20036;-59
2022/06/08 06:45:03;;;;;;;22.75;14.88;;;;;;;;;;4894093;29;20099;-61
2022/06/08 06:47:29;;;;;;;22.83;15.15;;;;;;;;;;4893688;29;20028;-61
2022/06/08 06:49:56;;;;;;;22.60;14.30;;;;;;;;;;4893656;29;20025;-62
2022/06/08 06:52:22;;;;;;;22.23;15.32;;;;;;;;;;4894364;29;20025;-61
2022/06/08 06:54:48;;;;;;;19.75;13.07;;;;;;;;;;4894375;29;20064;-62
2022/06/08 06:57:14;;;;;;;21.10;13.57;;;;;;;;;;4893674;29;20063;-61
2022/06/08 06:59:41;;;;;;;20.23;12.15;;;;;;;;;;4876515;29;20033;-63
2022/06/08 07:02:11;;;;;;;19.08;12.35;;;;;;;;;;4894287;29;20120;-61
2022/06/08 07:04:37;;;;;;;18.52;11.70;;;;;;;;;;4894438;29;20048;-62
2022/06/08 07:07:03;;;;;;;18.00;11.55;;;;;;;;;;4894120;29;20037;-61
2022/06/08 07:09:29;;;;;;;18.67;11.15;;;;;;;;;;4893770;29;20029;-61
2022/06/08 07:11:55;;;;;;;19.30;10.98;;;;;;;;;;4952683;23;20054;-66
2022/06/08 07:14:22;;;;;;;17.90;11.10;;;;;;;;;;4951758;29;20556;-66
2022/06/08 07:16:48;;;;;;;18.52;11.20;;;;;;;;;;4951967;29;20712;-66
2022/06/08 07:19:14;;;;;;;17.90;11.02;;;;;;;;;;4951692;29;20333;-66
2022/06/08 07:21:41;;;;;;;18.60;10.90;;;;;;;;;;4951671;29;20491;-66
2022/06/08 07:24:07;;;;;;;18.00;10.63;;;;;;;;;;4934427;28;20112;-66
2022/06/08 07:26:34;;;;;;;16.08;9.73;;;;;;;;;;4933892;28;20483;-65
2022/06/08 07:29:00;;;;;;;18.35;10.27;;;;;;;;;;4934431;28;20023;-63
2022/06/08 07:31:26;;;;;;;17.55;11.15;;;;;;;;;;4934248;28;20058;-65
2022/06/08 07:33:52;;;;;;;18.02;11.07;;;;;;;;;;4951659;29;20031;-64
2022/06/08 07:36:19;;;;;;;19.45;10.77;;;;;;;;;;4951487;29;20066;-65
2022/06/08 07:38:45;;;;;;;17.58;11.27;;;;;;;;;;4951517;28;20058;-64
2022/06/08 07:41:11;;;;;;;18.17;11.75;;;;;;;;;;4934136;28;20085;-65
2022/06/08 07:43:37;;;;;;;17.65;11.55;;;;;;;;;;4934082;28;20114;-65
2022/06/08 07:46:05;;;;;;;16.70;11.15;;;;;;;;;;4951130;28;20023;-65
2022/06/08 07:51:15;;;;;;;16.88;10.32;;;;;;;;;;4951593;29;20049;-57
2022/06/08 07:53:41;;;;;;;18.15;11.27;;;;;;;;;;4951314;28;20019;-60
2022/06/08 07:56:08;;;;;;;16.92;10.73;;;;;;;;;;4950992;28;20038;-66
2022/06/08 07:58:33;;;;;;;17.83;10.38;;;;;;;;;;4950892;28;20030;-66
2022/06/08 08:00:59;;;;;;;16.48;10.77;;;;;;;;;;4933954;28;20032;-66
2022/06/08 08:03:26;;;;;;;17.83;10.30;;;;;;;;;;4951051;28;20019;-65
2022/06/08 08:05:52;;;;;;;17.27;10.32;;;;;;;;;;4951457;29;20019;-66
2022/06/08 08:08:19;;;;;;;15.52;9.73;;;;;;;;;;4950965;28;20053;-65
2022/06/08 08:10:45;;;;;;;16.38;9.85;;;;;;;;;;4952162;28;20114;-66
2022/06/08 08:13:11;;;;;;;18.65;10.20;;;;;;;;;;4954352;28;20031;-65
2022/06/08 08:15:38;;;;;;;15.50;9.63;;;;;;;;;;4954788;28;20029;-65
2022/06/08 08:18:04;;;;;;;16.60;10.48;;;;;;;;;;4953903;28;20027;-65
2022/06/08 08:20:31;;;;;;;16.77;10.05;;;;;;;;;;4937170;28;20114;-65
2022/06/08 08:22:58;;;;;;;17.42;10.30;;;;;;;;;;4937310;28;20469;-65
2022/06/08 08:25:24;;;;;;;16.10;11.23;;;;;;;;;;4954484;28;20030;-66
2022/06/08 08:27:50;;;;;;;17.30;10.82;;;;;;;;;;4953941;28;20027;-65
2022/06/08 08:30:18;;;;;;;16.55;11.50;;;;;;;;;;4936805;28;20039;-65
2022/06/08 08:32:44;;;;;;;16.77;10.93;;;;;;;;;;4954361;28;20035;-65
2022/06/08 08:35:10;;;;;;;18.25;11.27;;;;;;;;;;4954484;28;20224;-66
2022/06/08 08:37:36;;;;;;;16.98;10.85;;;;;;;;;;4953960;28;20031;-66
2022/06/08 08:40:04;;;;;;;16.95;11.07;;;;;;;;;;4953780;28;20023;-65
2022/06/08 08:42:30;;;;;;;17.30;10.77;;;;;;;;;;4936641;28;20020;-66
2022/06/08 08:44:56;;;;;;;15.63;10.88;;;;;;;;;;4936744;28;20486;-65
2022/06/08 08:47:28;;;;;;;19.98;11.65;;;;;;;;;;4953363;29;20099;-66
2022/06/08 08:49:56;;;;;;;18.83;11.35;;;;;;;;;;4936496;28;20031;-66
2022/06/08 08:52:31;;;;;;;21.15;11.95;;;;;;;;;;4936842;28;20088;-66
2022/06/08 08:55:00;;;;;;;21.52;12.23;;;;;;;;;;4936530;28;20067;-66
2022/06/08 08:57:31;;;;;;;19.63;11.80;;;;;;;;;;4604090;28;9999625;-65
2022/06/08 08:59:57;;;;;;;19.92;11.88;;;;;;;;;;4980983;28;20036;-65
2022/06/08 09:05:19;;;;;;;17.15;11.48;;;;;;;;;;4950801;29;20038;-66
2022/06/08 09:07:45;;;;;;;18.20;11.80;;;;;;;;;;4931388;29;20908;-64
2022/06/08 09:10:24;;;;;;;16.27;11.98;;;;;;;;;;4932114;28;20039;-65
2022/06/08 09:12:51;;;;;;;16.05;11.80;;;;;;;;;;4931729;29;20032;-66
2022/06/08 09:15:19;;;;;;;15.75;10.88;;;;;;;;;;4943034;28;20252;-65
2022/06/08 09:17:58;;;;;;;17.50;11.25;;;;;;;;;;4950326;28;20035;-66
2022/06/08 09:20:24;;;;;;;16.08;10.30;;;;;;;;;;4950854;29;20058;-66
2022/06/08 09:22:53;;;;;;;15.70;10.43;;;;;;;;;;4950521;29;20032;-65
2022/06/08 09:25:27;;;;;;;17.90;11.30;;;;;;;;;;4952238;29;20110;-66
2022/06/08 09:27:55;;;;;;;15.68;10.43;;;;;;;;;;4934925;28;20029;-66
2022/06/08 09:30:32;;;;;;;16.27;10.68;;;;;;;;;;4953461;28;20122;-67
2022/06/08 09:32:59;;;;;;;14.80;10.10;;;;;;;;;;4937119;28;20044;-65
2022/06/08 09:35:34;;;;;;;17.27;10.50;;;;;;;;;;4934165;28;20038;-66
2022/06/08 09:38:09;;;;;;;16.33;10.50;;;;;;;;;;4934571;29;20020;-66
2022/06/08 09:40:38;;;;;;;14.88;10.65;;;;;;;;;;4934256;28;20115;-66
2022/06/08 09:43:11;;;;;;;16.13;10.30;;;;;;;;;;4934396;28;20080;-66
2022/06/08 09:45:43;;;;;;;15.45;10.45;;;;;;;;;;4934865;28;20028;-67
2022/06/08 09:51:28;;;;;;;15.07;10.30;;;;;;;;;;4934287;28;20087;-65
2022/06/08 09:53:57;;;;;;;15.70;9.32;;;;;;;;;;4935241;28;20106;-67
2022/06/08 09:56:29;;;;;;;14.38;9.48;;;;;;;;;;4935065;28;20066;-66
2022/06/08 09:59:01;;;;;;;14.35;9.00;;;;;;;;;;4925273;28;20031;-64
2022/06/08 10:01:30;;;;;;;15.32;8.88;;;;;;;;;;4953328;28;20434;-64
2022/06/08 10:04:04;;;;;;;15.10;9.02;;;;;;;;;;4936860;28;20031;-65
2022/06/08 10:06:38;;;;;;;15.85;9.65;;;;;;;;;;4953635;28;20020;-65
2022/06/08 10:09:23;;;;;;;15.63;10.40;;;;;;;;;;4953416;28;20027;-64
2022/06/08 10:12:08;;;;;;;16.38;10.00;;;;;;;;;;4953347;28;20038;-65
2022/06/08 10:14:36;;;;;;;15.75;10.20;;;;;;;;;;4953189;28;20058;-64
2022/06/08 10:17:10;;;;;;;14.68;9.20;;;;;;;;;;4953112;28;20031;-66
2022/06/08 10:19:44;;;;;;;16.27;9.43;;;;;;;;;;4953497;28;20028;-65
2022/06/08 10:22:10;;;;;;;15.75;9.70;;;;;;;;;;4953641;28;20027;-66
2022/06/08 10:24:50;;;;;;;15.60;9.60;;;;;;;;;;4952992;28;20020;-66
2022/06/08 10:27:35;;;;;;;14.40;9.60;;;;;;;;;;4953223;28;20023;-65
2022/06/08 10:30:02;;;;;;;14.38;9.50;;;;;;;;;;4953586;29;20031;-65
2022/06/08 10:32:31;;;;;;;15.30;9.90;;;;;;;;;;4949817;28;20047;-65
2022/06/08 10:34:57;;;;;;;15.40;9.90;;;;;;;;;;4936418;29;20388;-66
2022/06/08 10:37:31;;;;;;;18.85;10.40;;;;;;;;;;4919820;29;20031;-66
2022/06/08 10:39:58;;;;;;;15.35;9.35;;;;;;;;;;4938851;29;20035;-65
2022/06/08 10:42:39;;;;;;;16.42;9.63;;;;;;;;;;4937470;29;20030;-66
2022/06/08 10:45:28;;;;;;;14.30;9.60;;;;;;;;;;4937646;29;20408;-65
2022/06/08 10:48:22;;;;;;;15.07;10.02;;;;;;;;;;4937376;29;20032;-65
2022/06/08 10:50:49;;;;;;;14.82;9.43;;;;;;;;;;4939144;29;20042;-63
2022/06/08 10:56:21;;;;;;;16.27;9.93;;;;;;;;;;4938245;29;20034;-65
2022/06/08 10:58:58;;;;;;;15.43;9.68;;;;;;;;;;4932804;29;20048;-65
2022/06/08 11:01:33;;;;;;;14.35;9.18;;;;;;;;;;4933124;29;20097;-65
2022/06/08 11:04:02;;;;;;;15.40;9.20;;;;;;;;;;4952025;28;20023;-65
2022/06/08 11:06:46;;;;;;;15.93;9.60;;;;;;;;;;4951810;28;20081;-66
2022/06/08 11:09:39;;;;;;;15.23;9.40;;;;;;;;;;4934391;28;20111;-66
2022/06/08 11:12:11;;;;;;;16.17;9.60;;;;;;;;;;4951411;28;20050;-66
2022/06/08 11:14:43;;;;;;;15.50;9.90;;;;;;;;;;4952258;28;20034;-66
2022/06/08 11:17:29;;;;;;;16.92;9.85;;;;;;;;;;4954284;28;20348;-64
2022/06/08 11:20:14;;;;;;;16.15;9.50;;;;;;;;;;4951893;29;20031;-65
2022/06/08 11:22:51;;;;;;;16.40;9.88;;;;;;;;;;4253311;29;10000741;-66
2022/06/08 11:25:23;;;;;;;15.13;9.85;;;;;;;;;;4930225;28;20760;-65
2022/06/08 11:28:09;;;;;;;15.88;9.55;;;;;;;;;;4929101;29;20110;-66
2022/06/08 11:30:38;;;;;;;15.10;9.23;;;;;;;;;;4912737;28;20039;-65
2022/06/08 11:33:18;;;;;;;14.98;9.68;;;;;;;;;;4912275;28;20077;-65
2022/06/08 11:35:57;;;;;;;15.88;9.75;;;;;;;;;;4929840;29;20024;-65
2022/06/08 11:38:42;;;;;;;14.38;9.32;;;;;;;;;;4912295;28;20126;-65
2022/06/08 11:41:20;;;;;;;15.23;10.07;;;;;;;;;;4912485;28;20613;-65
2022/06/08 11:43:47;;;;;;;;;;;;;;;;;;4929645;28;20024;-65
2022/06/08 11:46:20;;;;;;;17.02;10.23;;;;;;;;;;4929263;29;19911;-64
2022/06/08 11:48:49;;;;;;;16.70;10.32;;;;;;;;;;4929098;29;20081;-65
2022/06/08 11:51:15;;;;;;;;;;;;;;;;;;4930370;29;20091;-66
2022/06/08 11:53:42;;;;;;;14.73;9.95;;;;;;;;;;4930457;29;19923;-66
2022/06/08 11:56:17;;;;;;;16.75;9.80;;;;;;;;;;4930133;28;20173;-66
2022/06/08 11:58:46;;;;;;;15.87;10.23;;;;;;;;;;4591302;28;10001279;-64
2022/06/08 12:01:17;;;;;;;14.90;10.30;;;;;;;;;;4929096;29;20032;-65
2022/06/08 12:03:44;;;;;;;15.02;10.43;;;;;;;;;;4929169;28;20024;-65
2022/06/08 12:06:22;;;;;;;15.43;9.97;;;;;;;;;;4929746;28;20024;-65
2022/06/08 12:08:57;;;;;;;16.35;10.63;;;;;;;;;;4940314;29;20082;-66
2022/06/08 12:11:25;;;;;;;15.13;9.93;;;;;;;;;;4939693;29;20040;-63
2022/06/08 12:13:56;;;;;;;16.70;10.32;;;;;;;;;;4937109;28;20618;-67
2022/06/08 12:16:22;;;;;;;15.30;10.27;;;;;;;;;;4938331;28;20511;-66
2022/06/08 12:18:57;;;;;;;16.48;10.05;;;;;;;;;;4939065;28;20110;-65
2022/06/08 12:21:31;;;;;;;15.55;10.23;;;;;;;;;;4938806;28;20062;-66
2022/06/08 12:23:57;;;;;;;16.35;10.35;;;;;;;;;;4923990;28;20019;-66
2022/06/08 12:26:24;;;;;;;16.15;10.07;;;;;;;;;;4923576;28;20028;-65
2022/06/08 12:29:01;;;;;;;16.70;10.05;;;;;;;;;;4939613;28;20965;-65
2022/06/08 12:31:31;;;;;;;16.90;10.37;;;;;;;;;;4581090;29;9999931;-67
2022/06/08 12:34:17;;;;;;;16.10;10.57;;;;;;;;;;4936905;28;20031;-66
2022/06/08 12:36:43;;;;;;;15.88;10.48;;;;;;;;;;4901504;29;20050;-65
2022/06/08 12:39:11;;;;;;;17.15;10.45;;;;;;;;;;4947830;28;20023;-65
2022/06/08 12:41:45;;;;;;;16.02;10.30;;;;;;;;;;4945130;28;20399;-66
2022/06/08 12:44:17;;;;;;;16.60;10.65;;;;;;;;;;4929561;28;20032;-64
2022/06/08 12:46:57;;;;;;;18.95;10.25;;;;;;;;;;4931567;28;20028;-65
2022/06/08 12:49:25;;;;;;;16.48;9.85;;;;;;;;;;4573507;28;9999824;-66
2022/06/08 12:51:55;;;;;;;17.33;10.30;;;;;;;;;;4937149;28;20135;-64
2022/06/08 12:54:23;;;;;;;21.95;9.95;;;;;;;;;;4944692;29;20043;-67
2022/06/08 12:56:52;;;;;;;19.60;9.15;;;;;;;;;;4937559;28;20621;-62
2022/06/08 12:59:19;;;;;;;19.48;8.70;;;;;;;;;;4939439;28;20082;-67
2022/06/08 13:01:45;;;;;;;16.38;9.27;;;;;;;;;;4940303;28;20016;-62
2022/06/08 13:04:12;;;;;;;21.73;16.80;;;;;;;;;;4924105;28;20035;-64
2022/06/08 13:06:39;;;;;;;23.08;20.67;;;;;;;;;;4939743;29;20027;-64
2022/06/08 13:09:06;;;;;;;27.60;25.10;;;;;;;;;;4940068;28;20069;-64
2022/06/08 13:11:32;;;;;;;40.43;37.17;;;;;;;;;;4940916;28;20043;-65
2022/06/08 13:13:58;;;;;;;38.28;35.17;;;;;;;;;;4939530;28;20035;-65
2022/06/08 13:16:27;;;;;;;37.17;34.13;;;;;;;;;;4940323;28;20353;-65
2022/06/08 13:18:54;;;;;;;41.10;37.67;;;;;;;;;;4961623;23;20267;-61
2022/06/08 13:21:21;;;;;;;35.90;32.70;;;;;;;;;;4949669;28;20031;-61
2022/06/08 13:23:47;;;;;;;33.92;30.88;;;;;;;;;;4940112;28;20023;-59
2022/06/08 13:26:15;;;;;;;34.65;31.65;;;;;;;;;;4950016;28;20023;-61
2022/06/08 13:28:41;;;;;;;34.20;31.25;;;;;;;;;;4949687;28;20024;-61
2022/06/08 13:31:09;;;;;;;32.25;29.13;;;;;;;;;;4949712;29;20069;-57
2022/06/08 13:36:24;;;;;;;30.20;27.20;;;;;;;;;;4949962;29;20065;-62
2022/06/08 13:38:52;;;;;;;29.88;27.20;;;;;;;;;;4948448;29;20012;-62
2022/06/08 13:41:18;;;;;;;29.48;26.50;;;;;;;;;;4934695;28;20027;-68
2022/06/08 13:43:44;;;;;;;29.85;27.02;;;;;;;;;;4952223;28;20038;-63
2022/06/08 13:46:17;;;;;;;28.77;25.83;;;;;;;;;;4952440;28;20019;-63
2022/06/08 13:48:44;;;;;;;28.63;25.45;;;;;;;;;;4950604;29;20026;-61
2022/06/08 13:51:10;;;;;;;27.15;24.45;;;;;;;;;;4952335;28;20027;-62
2022/06/08 13:53:36;;;;;;;27.88;24.98;;;;;;;;;;4942915;28;20019;-63
2022/06/08 13:56:02;;;;;;;28.08;25.15;;;;;;;;;;4952459;29;20045;-63
2022/06/08 13:58:28;;;;;;;24.95;22.42;;;;;;;;;;4942771;29;20027;-61
2022/06/08 14:00:56;;;;;;;24.45;22.05;;;;;;;;;;4939322;29;20153;-63
2022/06/08 14:03:29;;;;;;;27.33;21.67;;;;;;;;;;4933622;29;20031;-63
2022/06/08 14:14:13;;;;;;;24.92;20.15;;;;;;;;;;4933861;29;20089;-64
2022/06/08 14:16:41;;;;;;;22.58;20.30;;;;;;;;;;4933317;29;20028;-63
2022/06/08 14:19:25;;;;;;;25.23;21.15;;;;;;;;;;4933219;29;20070;-64
2022/06/08 14:21:52;;;;;;;21.63;16.73;;;;;;;;;;4933207;29;20051;-66
2022/06/08 14:24:41;;;;;;;22.02;16.15;;;;;;;;;;4933463;29;20107;-65
2022/06/08 14:27:08;;;;;;;17.67;14.77;;;;;;;;;;4918119;29;20102;-64
2022/06/08 14:29:36;;;;;;;18.13;13.43;;;;;;;;;;4950983;29;20027;-64
2022/06/08 14:32:02;;;;;;;21.10;14.33;;;;;;;;;;4942923;29;20030;-64
2022/06/08 14:34:33;;;;;;;17.85;14.50;;;;;;;;;;4951546;28;20332;-65
2022/06/08 14:37:00;;;;;;;19.38;13.95;;;;;;;;;;4951222;28;20027;-64
2022/06/08 14:39:27;;;;;;;21.00;14.27;;;;;;;;;;4951052;28;20475;-64
2022/06/08 14:41:54;;;;;;;20.73;12.50;;;;;;;;;;4942301;29;20169;-64
2022/06/08 14:44:20;;;;;;;18.35;11.38;;;;;;;;;;4952020;29;20031;-63
2022/06/08 14:46:51;;;;;;;20.27;12.50;;;;;;;;;;4951766;29;20117;-64
2022/06/08 14:49:20;;;;;;;17.20;12.55;;;;;;;;;;4936160;29;20391;-64
2022/06/08 14:51:47;;;;;;;24.35;11.70;;;;;;;;;;4940931;29;20038;-65
2022/06/08 14:54:17;;;;;;;18.30;12.20;;;;;;;;;;4942233;28;20114;-64
2022/06/08 14:56:46;;;;;;;17.98;11.07;;;;;;;;;;4949609;29;20047;-64